sensor_id;sensor_type;location;lat;lon;timestamp;P1;durP1;ratioP1;P2;durP2;ratioP2
56893;SDS011;43392;50.078;13.704;2023-05-10T00:01:36;8.82;;;3.60;;
56893;SDS011;43392;50.078;13.704;2023-05-10T00:04:02;8.52;;;4.00;;
56893;SDS011;43392;50.078;13.704;2023-05-10T00:06:29;6.15;;;3.50;;
56893;SDS011;43392;50.078;13.704;2023-05-10T00:08:56;10.02;;;4.10;;
56893;SDS011;43392;50.078;13.704;2023-05-10T00:11:23;7.18;;;3.65;;
56893;SDS011;43392;50.078;13.704;2023-05-10T00:13:49;9.10;;;3.60;;
56893;SDS011;43392;50.078;13.704;2023-05-10T00:16:17;6.70;;;3.72;;
56893;SDS011;43392;50.078;13.704;2023-05-10T00:18:44;6.32;;;3.85;;
56893;SDS011;43392;50.078;13.704;2023-05-10T00:21:10;8.73;;;4.40;;
56893;SDS011;43392;50.078;13.704;2023-05-10T00:23:37;7.65;;;3.97;;
56893;SDS011;43392;50.078;13.704;2023-05-10T00:26:04;7.35;;;3.97;;
56893;SDS011;43392;50.078;13.704;2023-05-10T00:28:30;9.95;;;4.20;;
56893;SDS011;43392;50.078;13.704;2023-05-10T00:30:57;8.15;;;4.75;;
56893;SDS011;43392;50.078;13.704;2023-05-10T00:33:25;7.60;;;4.35;;
56893;SDS011;43392;50.078;13.704;2023-05-10T00:35:52;6.95;;;4.00;;
56893;SDS011;43392;50.078;13.704;2023-05-10T00:38:18;7.97;;;4.45;;
56893;SDS011;43392;50.078;13.704;2023-05-10T00:40:45;7.80;;;4.38;;
56893;SDS011;43392;50.078;13.704;2023-05-10T00:43:12;7.93;;;4.03;;
56893;SDS011;43392;50.078;13.704;2023-05-10T00:45:38;6.72;;;3.85;;
56893;SDS011;43392;50.078;13.704;2023-05-10T00:48:06;7.55;;;4.32;;
56893;SDS011;43392;50.078;13.704;2023-05-10T00:50:34;7.63;;;3.88;;
56893;SDS011;43392;50.078;13.704;2023-05-10T00:53:01;9.85;;;4.57;;
56893;SDS011;43392;50.078;13.704;2023-05-10T00:55:28;7.53;;;4.25;;
56893;SDS011;43392;50.078;13.704;2023-05-10T00:57:56;9.13;;;3.92;;
56893;SDS011;43392;50.078;13.704;2023-05-10T01:00:22;7.95;;;4.15;;
56893;SDS011;43392;50.078;13.704;2023-05-10T01:02:49;7.60;;;3.65;;
56893;SDS011;43392;50.078;13.704;2023-05-10T01:05:16;7.43;;;4.13;;
56893;SDS011;43392;50.078;13.704;2023-05-10T01:07:44;7.00;;;3.85;;
56893;SDS011;43392;50.078;13.704;2023-05-10T01:10:10;7.15;;;4.28;;
56893;SDS011;43392;50.078;13.704;2023-05-10T01:12:39;7.53;;;4.07;;
56893;SDS011;43392;50.078;13.704;2023-05-10T01:15:07;9.43;;;4.07;;
56893;SDS011;43392;50.078;13.704;2023-05-10T01:17:36;9.50;;;4.15;;
56893;SDS011;43392;50.078;13.704;2023-05-10T01:20:05;9.50;;;4.13;;
56893;SDS011;43392;50.078;13.704;2023-05-10T01:22:42;11.18;;;4.25;;
56893;SDS011;43392;50.078;13.704;2023-05-10T01:25:31;8.65;;;4.50;;
56893;SDS011;43392;50.078;13.704;2023-05-10T01:28:19;8.57;;;4.32;;
56893;SDS011;43392;50.078;13.704;2023-05-10T01:31:07;7.57;;;4.30;;
56893;SDS011;43392;50.078;13.704;2023-05-10T01:33:46;7.90;;;4.35;;
56893;SDS011;43392;50.078;13.704;2023-05-10T01:36:19;10.02;;;4.70;;
56893;SDS011;43392;50.078;13.704;2023-05-10T01:38:53;7.63;;;4.50;;
56893;SDS011;43392;50.078;13.704;2023-05-10T01:41:28;8.55;;;4.25;;
56893;SDS011;43392;50.078;13.704;2023-05-10T01:44:04;8.40;;;4.40;;
56893;SDS011;43392;50.078;13.704;2023-05-10T01:46:38;9.20;;;4.32;;
56893;SDS011;43392;50.078;13.704;2023-05-10T01:49:08;10.40;;;4.80;;
56893;SDS011;43392;50.078;13.704;2023-05-10T01:51:38;8.38;;;4.70;;
56893;SDS011;43392;50.078;13.704;2023-05-10T01:54:08;8.88;;;5.15;;
56893;SDS011;43392;50.078;13.704;2023-05-10T01:56:36;8.52;;;4.72;;
56893;SDS011;43392;50.078;13.704;2023-05-10T01:59:06;8.45;;;4.57;;
56893;SDS011;43392;50.078;13.704;2023-05-10T02:01:37;9.50;;;4.95;;
56893;SDS011;43392;50.078;13.704;2023-05-10T02:04:05;12.27;;;4.68;;
56893;SDS011;43392;50.078;13.704;2023-05-10T02:06:35;8.55;;;4.88;;
56893;SDS011;43392;50.078;13.704;2023-05-10T02:09:04;10.27;;;4.80;;
56893;SDS011;43392;50.078;13.704;2023-05-10T02:11:32;8.73;;;4.28;;
56893;SDS011;43392;50.078;13.704;2023-05-10T02:13:59;9.95;;;4.90;;
56893;SDS011;43392;50.078;13.704;2023-05-10T02:16:27;10.95;;;5.43;;
56893;SDS011;43392;50.078;13.704;2023-05-10T02:18:55;7.97;;;4.63;;
56893;SDS011;43392;50.078;13.704;2023-05-10T02:21:25;9.43;;;4.68;;
56893;SDS011;43392;50.078;13.704;2023-05-10T02:23:53;8.10;;;4.60;;
56893;SDS011;43392;50.078;13.704;2023-05-10T02:26:21;8.30;;;4.88;;
56893;SDS011;43392;50.078;13.704;2023-05-10T02:28:50;9.73;;;5.18;;
56893;SDS011;43392;50.078;13.704;2023-05-10T02:31:17;10.27;;;5.10;;
56893;SDS011;43392;50.078;13.704;2023-05-10T02:33:44;9.05;;;4.95;;
56893;SDS011;43392;50.078;13.704;2023-05-10T02:36:12;8.35;;;5.13;;
56893;SDS011;43392;50.078;13.704;2023-05-10T02:38:42;9.77;;;4.68;;
56893;SDS011;43392;50.078;13.704;2023-05-10T02:41:10;11.77;;;5.35;;
56893;SDS011;43392;50.078;13.704;2023-05-10T02:43:38;9.50;;;4.97;;
56893;SDS011;43392;50.078;13.704;2023-05-10T02:46:06;9.75;;;4.65;;
56893;SDS011;43392;50.078;13.704;2023-05-10T02:48:33;11.43;;;5.55;;
56893;SDS011;43392;50.078;13.704;2023-05-10T02:51:00;9.00;;;5.60;;
56893;SDS011;43392;50.078;13.704;2023-05-10T02:53:33;11.07;;;5.82;;
56893;SDS011;43392;50.078;13.704;2023-05-10T02:56:08;9.73;;;5.07;;
56893;SDS011;43392;50.078;13.704;2023-05-10T02:58:40;10.27;;;5.80;;
56893;SDS011;43392;50.078;13.704;2023-05-10T03:01:06;9.48;;;5.72;;
56893;SDS011;43392;50.078;13.704;2023-05-10T03:03:33;11.27;;;6.38;;
56893;SDS011;43392;50.078;13.704;2023-05-10T03:06:00;10.88;;;5.80;;
56893;SDS011;43392;50.078;13.704;2023-05-10T03:08:27;9.95;;;5.93;;
56893;SDS011;43392;50.078;13.704;2023-05-10T03:10:57;11.98;;;6.28;;
56893;SDS011;43392;50.078;13.704;2023-05-10T03:13:39;10.02;;;5.95;;
56893;SDS011;43392;50.078;13.704;2023-05-10T03:16:13;8.95;;;5.70;;
56893;SDS011;43392;50.078;13.704;2023-05-10T03:18:44;10.35;;;5.50;;
56893;SDS011;43392;50.078;13.704;2023-05-10T03:21:17;8.52;;;5.32;;
56893;SDS011;43392;50.078;13.704;2023-05-10T03:23:50;9.82;;;6.00;;
56893;SDS011;43392;50.078;13.704;2023-05-10T03:26:23;10.85;;;6.03;;
56893;SDS011;43392;50.078;13.704;2023-05-10T03:28:53;12.15;;;5.85;;
56893;SDS011;43392;50.078;13.704;2023-05-10T03:31:21;13.05;;;6.60;;
56893;SDS011;43392;50.078;13.704;2023-05-10T03:33:48;9.15;;;5.70;;
56893;SDS011;43392;50.078;13.704;2023-05-10T03:36:15;9.00;;;5.70;;
56893;SDS011;43392;50.078;13.704;2023-05-10T03:38:42;11.73;;;6.60;;
56893;SDS011;43392;50.078;13.704;2023-05-10T03:41:09;9.63;;;5.63;;
56893;SDS011;43392;50.078;13.704;2023-05-10T03:43:36;9.02;;;5.72;;
56893;SDS011;43392;50.078;13.704;2023-05-10T03:46:05;10.77;;;5.68;;
56893;SDS011;43392;50.078;13.704;2023-05-10T03:48:32;8.88;;;5.45;;
56893;SDS011;43392;50.078;13.704;2023-05-10T03:50:59;10.10;;;6.07;;
56893;SDS011;43392;50.078;13.704;2023-05-10T03:53:25;10.13;;;5.75;;
56893;SDS011;43392;50.078;13.704;2023-05-10T03:55:52;8.90;;;4.78;;
56893;SDS011;43392;50.078;13.704;2023-05-10T03:58:18;8.75;;;5.18;;
56893;SDS011;43392;50.078;13.704;2023-05-10T04:00:45;9.40;;;5.25;;
56893;SDS011;43392;50.078;13.704;2023-05-10T04:03:13;10.15;;;5.65;;
56893;SDS011;43392;50.078;13.704;2023-05-10T04:05:39;8.13;;;4.70;;
56893;SDS011;43392;50.078;13.704;2023-05-10T04:08:06;8.77;;;5.20;;
56893;SDS011;43392;50.078;13.704;2023-05-10T04:10:33;9.35;;;5.55;;
56893;SDS011;43392;50.078;13.704;2023-05-10T04:13:00;11.15;;;5.88;;
56893;SDS011;43392;50.078;13.704;2023-05-10T04:15:26;12.05;;;6.68;;
56893;SDS011;43392;50.078;13.704;2023-05-10T04:17:53;13.13;;;7.25;;
56893;SDS011;43392;50.078;13.704;2023-05-10T04:20:21;15.57;;;8.38;;
56893;SDS011;43392;50.078;13.704;2023-05-10T04:22:47;11.52;;;7.40;;
56893;SDS011;43392;50.078;13.704;2023-05-10T04:25:14;12.50;;;7.38;;
56893;SDS011;43392;50.078;13.704;2023-05-10T04:27:40;11.77;;;6.10;;
56893;SDS011;43392;50.078;13.704;2023-05-10T04:30:08;10.25;;;6.03;;
56893;SDS011;43392;50.078;13.704;2023-05-10T04:32:35;11.23;;;6.32;;
56893;SDS011;43392;50.078;13.704;2023-05-10T04:35:01;11.10;;;5.85;;
56893;SDS011;43392;50.078;13.704;2023-05-10T04:37:29;10.68;;;6.25;;
56893;SDS011;43392;50.078;13.704;2023-05-10T04:39:56;10.15;;;6.07;;
56893;SDS011;43392;50.078;13.704;2023-05-10T04:42:24;10.63;;;6.10;;
56893;SDS011;43392;50.078;13.704;2023-05-10T04:44:51;10.00;;;6.15;;
56893;SDS011;43392;50.078;13.704;2023-05-10T04:47:18;10.77;;;6.72;;
56893;SDS011;43392;50.078;13.704;2023-05-10T04:49:44;12.20;;;6.40;;
56893;SDS011;43392;50.078;13.704;2023-05-10T04:52:11;10.13;;;6.75;;
56893;SDS011;43392;50.078;13.704;2023-05-10T04:54:39;11.35;;;6.40;;
56893;SDS011;43392;50.078;13.704;2023-05-10T04:57:05;10.30;;;5.97;;
56893;SDS011;43392;50.078;13.704;2023-05-10T04:59:32;10.93;;;5.90;;
56893;SDS011;43392;50.078;13.704;2023-05-10T05:01:59;11.82;;;6.35;;
56893;SDS011;43392;50.078;13.704;2023-05-10T05:04:26;10.98;;;5.95;;
56893;SDS011;43392;50.078;13.704;2023-05-10T05:06:52;10.73;;;6.13;;
56893;SDS011;43392;50.078;13.704;2023-05-10T05:09:19;13.38;;;6.35;;
56893;SDS011;43392;50.078;13.704;2023-05-10T05:11:47;15.57;;;6.25;;
56893;SDS011;43392;50.078;13.704;2023-05-10T05:14:13;10.05;;;5.65;;
56893;SDS011;43392;50.078;13.704;2023-05-10T05:16:40;8.77;;;5.40;;
56893;SDS011;43392;50.078;13.704;2023-05-10T05:19:06;10.57;;;6.10;;
56893;SDS011;43392;50.078;13.704;2023-05-10T05:21:33;11.32;;;6.03;;
56893;SDS011;43392;50.078;13.704;2023-05-10T05:24:00;10.68;;;5.88;;
56893;SDS011;43392;50.078;13.704;2023-05-10T05:26:26;9.93;;;5.65;;
56893;SDS011;43392;50.078;13.704;2023-05-10T05:28:54;10.10;;;5.38;;
56893;SDS011;43392;50.078;13.704;2023-05-10T05:31:21;9.93;;;5.90;;
56893;SDS011;43392;50.078;13.704;2023-05-10T05:33:47;9.57;;;5.60;;
56893;SDS011;43392;50.078;13.704;2023-05-10T05:36:14;9.15;;;5.57;;
56893;SDS011;43392;50.078;13.704;2023-05-10T05:38:41;10.18;;;6.15;;
56893;SDS011;43392;50.078;13.704;2023-05-10T05:41:08;8.48;;;4.90;;
56893;SDS011;43392;50.078;13.704;2023-05-10T05:43:34;8.45;;;4.20;;
56893;SDS011;43392;50.078;13.704;2023-05-10T05:46:02;7.72;;;4.45;;
56893;SDS011;43392;50.078;13.704;2023-05-10T05:48:29;6.95;;;4.00;;
56893;SDS011;43392;50.078;13.704;2023-05-10T05:50:56;8.68;;;4.47;;
56893;SDS011;43392;50.078;13.704;2023-05-10T05:53:23;9.00;;;4.65;;
56893;SDS011;43392;50.078;13.704;2023-05-10T05:55:53;9.52;;;5.45;;
56893;SDS011;43392;50.078;13.704;2023-05-10T05:58:20;7.85;;;4.88;;
56893;SDS011;43392;50.078;13.704;2023-05-10T06:00:47;7.35;;;4.55;;
56893;SDS011;43392;50.078;13.704;2023-05-10T06:03:15;9.27;;;4.30;;
56893;SDS011;43392;50.078;13.704;2023-05-10T06:05:41;9.48;;;5.45;;
56893;SDS011;43392;50.078;13.704;2023-05-10T06:08:08;7.80;;;4.75;;
56893;SDS011;43392;50.078;13.704;2023-05-10T06:10:35;9.65;;;5.75;;
56893;SDS011;43392;50.078;13.704;2023-05-10T06:13:01;8.68;;;4.95;;
56893;SDS011;43392;50.078;13.704;2023-05-10T06:15:28;12.13;;;4.35;;
56893;SDS011;43392;50.078;13.704;2023-05-10T06:17:55;11.52;;;5.18;;
56893;SDS011;43392;50.078;13.704;2023-05-10T06:20:22;7.03;;;3.78;;
56893;SDS011;43392;50.078;13.704;2023-05-10T06:22:49;9.02;;;4.65;;
56893;SDS011;43392;50.078;13.704;2023-05-10T06:25:16;6.72;;;3.58;;
56893;SDS011;43392;50.078;13.704;2023-05-10T06:27:43;13.77;;;3.70;;
56893;SDS011;43392;50.078;13.704;2023-05-10T06:30:10;6.95;;;3.78;;
56893;SDS011;43392;50.078;13.704;2023-05-10T06:32:38;7.35;;;3.83;;
56893;SDS011;43392;50.078;13.704;2023-05-10T06:35:05;6.47;;;3.22;;
56893;SDS011;43392;50.078;13.704;2023-05-10T06:37:34;6.03;;;3.33;;
56893;SDS011;43392;50.078;13.704;2023-05-10T06:40:00;9.52;;;3.45;;
56893;SDS011;43392;50.078;13.704;2023-05-10T06:42:27;7.53;;;3.17;;
56893;SDS011;43392;50.078;13.704;2023-05-10T06:44:53;6.55;;;3.20;;
56893;SDS011;43392;50.078;13.704;2023-05-10T06:47:20;8.13;;;3.28;;
56893;SDS011;43392;50.078;13.704;2023-05-10T06:49:47;7.85;;;3.22;;
56893;SDS011;43392;50.078;13.704;2023-05-10T06:52:13;7.05;;;3.53;;
56893;SDS011;43392;50.078;13.704;2023-05-10T06:54:41;8.70;;;3.75;;
56893;SDS011;43392;50.078;13.704;2023-05-10T06:57:08;7.22;;;3.50;;
56893;SDS011;43392;50.078;13.704;2023-05-10T06:59:34;6.30;;;3.50;;
56893;SDS011;43392;50.078;13.704;2023-05-10T07:02:02;8.45;;;3.50;;
56893;SDS011;43392;50.078;13.704;2023-05-10T07:04:28;12.27;;;4.63;;
56893;SDS011;43392;50.078;13.704;2023-05-10T07:06:55;7.22;;;3.90;;
56893;SDS011;43392;50.078;13.704;2023-05-10T07:09:22;9.95;;;3.97;;
56893;SDS011;43392;50.078;13.704;2023-05-10T07:11:50;7.13;;;3.78;;
56893;SDS011;43392;50.078;13.704;2023-05-10T07:14:17;6.65;;;3.15;;
56893;SDS011;43392;50.078;13.704;2023-05-10T07:16:43;6.75;;;3.25;;
56893;SDS011;43392;50.078;13.704;2023-05-10T07:19:10;11.77;;;5.55;;
56893;SDS011;43392;50.078;13.704;2023-05-10T07:21:37;10.30;;;3.70;;
56893;SDS011;43392;50.078;13.704;2023-05-10T07:24:05;8.82;;;3.22;;
56893;SDS011;43392;50.078;13.704;2023-05-10T07:26:32;9.60;;;4.75;;
56893;SDS011;43392;50.078;13.704;2023-05-10T07:29:00;7.05;;;3.33;;
56893;SDS011;43392;50.078;13.704;2023-05-10T07:31:27;6.65;;;3.20;;
56893;SDS011;43392;50.078;13.704;2023-05-10T07:33:54;5.18;;;2.97;;
56893;SDS011;43392;50.078;13.704;2023-05-10T07:36:20;6.70;;;3.22;;
56893;SDS011;43392;50.078;13.704;2023-05-10T07:38:47;6.72;;;3.63;;
56893;SDS011;43392;50.078;13.704;2023-05-10T07:41:14;6.38;;;3.25;;
56893;SDS011;43392;50.078;13.704;2023-05-10T07:43:41;6.95;;;3.45;;
56893;SDS011;43392;50.078;13.704;2023-05-10T07:46:09;7.10;;;3.45;;
56893;SDS011;43392;50.078;13.704;2023-05-10T07:48:36;5.90;;;3.08;;
56893;SDS011;43392;50.078;13.704;2023-05-10T07:51:02;5.88;;;3.05;;
56893;SDS011;43392;50.078;13.704;2023-05-10T07:53:29;5.75;;;3.00;;
56893;SDS011;43392;50.078;13.704;2023-05-10T07:55:57;5.93;;;3.28;;
56893;SDS011;43392;50.078;13.704;2023-05-10T07:58:24;7.68;;;3.10;;
56893;SDS011;43392;50.078;13.704;2023-05-10T08:00:51;6.55;;;3.33;;
56893;SDS011;43392;50.078;13.704;2023-05-10T08:03:19;7.53;;;2.92;;
56893;SDS011;43392;50.078;13.704;2023-05-10T08:05:46;5.72;;;3.30;;
56893;SDS011;43392;50.078;13.704;2023-05-10T08:08:12;4.72;;;3.03;;
56893;SDS011;43392;50.078;13.704;2023-05-10T08:10:39;8.90;;;3.50;;
56893;SDS011;43392;50.078;13.704;2023-05-10T08:13:05;6.43;;;3.22;;
56893;SDS011;43392;50.078;13.704;2023-05-10T08:15:32;5.50;;;3.50;;
56893;SDS011;43392;50.078;13.704;2023-05-10T08:17:59;6.68;;;3.10;;
56893;SDS011;43392;50.078;13.704;2023-05-10T08:20:27;8.63;;;3.50;;
56893;SDS011;43392;50.078;13.704;2023-05-10T08:22:53;9.07;;;3.40;;
56893;SDS011;43392;50.078;13.704;2023-05-10T08:25:20;6.63;;;3.35;;
56893;SDS011;43392;50.078;13.704;2023-05-10T08:27:46;12.02;;;3.80;;
56893;SDS011;43392;50.078;13.704;2023-05-10T08:30:13;6.50;;;3.47;;
56893;SDS011;43392;50.078;13.704;2023-05-10T08:32:40;10.88;;;3.67;;
56893;SDS011;43392;50.078;13.704;2023-05-10T08:35:06;5.32;;;3.40;;
56893;SDS011;43392;50.078;13.704;2023-05-10T08:37:34;6.95;;;3.47;;
56893;SDS011;43392;50.078;13.704;2023-05-10T08:40:01;7.90;;;3.38;;
56893;SDS011;43392;50.078;13.704;2023-05-10T08:42:28;7.72;;;3.42;;
56893;SDS011;43392;50.078;13.704;2023-05-10T08:44:57;7.47;;;3.38;;
56893;SDS011;43392;50.078;13.704;2023-05-10T08:47:25;8.93;;;3.35;;
56893;SDS011;43392;50.078;13.704;2023-05-10T08:49:52;8.65;;;3.38;;
56893;SDS011;43392;50.078;13.704;2023-05-10T08:52:20;5.45;;;3.10;;
56893;SDS011;43392;50.078;13.704;2023-05-10T08:54:51;6.53;;;3.67;;
56893;SDS011;43392;50.078;13.704;2023-05-10T08:57:18;8.45;;;3.60;;
56893;SDS011;43392;50.078;13.704;2023-05-10T08:59:45;8.45;;;3.47;;
56893;SDS011;43392;50.078;13.704;2023-05-10T09:02:11;7.82;;;3.42;;
56893;SDS011;43392;50.078;13.704;2023-05-10T09:04:40;5.53;;;3.35;;
56893;SDS011;43392;50.078;13.704;2023-05-10T09:07:07;6.18;;;3.47;;
56893;SDS011;43392;50.078;13.704;2023-05-10T09:09:33;7.80;;;3.83;;
56893;SDS011;43392;50.078;13.704;2023-05-10T09:12:02;6.50;;;3.33;;
56893;SDS011;43392;50.078;13.704;2023-05-10T09:14:29;6.28;;;3.25;;
56893;SDS011;43392;50.078;13.704;2023-05-10T09:17:00;6.38;;;3.50;;
56893;SDS011;43392;50.078;13.704;2023-05-10T09:19:27;6.63;;;3.58;;
56893;SDS011;43392;50.078;13.704;2023-05-10T09:21:54;7.70;;;3.30;;
56893;SDS011;43392;50.078;13.704;2023-05-10T09:24:20;5.95;;;3.50;;
56893;SDS011;43392;50.078;13.704;2023-05-10T09:26:52;5.45;;;3.03;;
56893;SDS011;43392;50.078;13.704;2023-05-10T09:29:20;8.10;;;4.35;;
56893;SDS011;43392;50.078;13.704;2023-05-10T09:31:47;7.72;;;3.95;;
56893;SDS011;43392;50.078;13.704;2023-05-10T09:34:16;9.50;;;4.88;;
56893;SDS011;43392;50.078;13.704;2023-05-10T09:36:54;8.93;;;3.72;;
56893;SDS011;43392;50.078;13.704;2023-05-10T09:39:29;6.88;;;3.88;;
56893;SDS011;43392;50.078;13.704;2023-05-10T09:41:57;7.00;;;3.60;;
56893;SDS011;43392;50.078;13.704;2023-05-10T09:44:26;7.22;;;3.58;;
56893;SDS011;43392;50.078;13.704;2023-05-10T09:46:53;8.75;;;4.05;;
56893;SDS011;43392;50.078;13.704;2023-05-10T09:49:20;11.07;;;4.47;;
56893;SDS011;43392;50.078;13.704;2023-05-10T09:51:47;8.00;;;4.22;;
56893;SDS011;43392;50.078;13.704;2023-05-10T09:54:23;10.73;;;4.78;;
56893;SDS011;43392;50.078;13.704;2023-05-10T09:56:50;8.77;;;4.88;;
56893;SDS011;43392;50.078;13.704;2023-05-10T09:59:16;8.65;;;5.50;;
56893;SDS011;43392;50.078;13.704;2023-05-10T10:01:50;8.93;;;4.97;;
56893;SDS011;43392;50.078;13.704;2023-05-10T10:04:17;6.70;;;4.32;;
56893;SDS011;43392;50.078;13.704;2023-05-10T10:06:46;9.95;;;5.13;;
56893;SDS011;43392;50.078;13.704;2023-05-10T10:09:12;6.13;;;4.15;;
56893;SDS011;43392;50.078;13.704;2023-05-10T10:11:40;8.80;;;4.97;;
56893;SDS011;43392;50.078;13.704;2023-05-10T10:14:07;8.80;;;4.68;;
56893;SDS011;43392;50.078;13.704;2023-05-10T10:16:33;7.47;;;4.55;;
56893;SDS011;43392;50.078;13.704;2023-05-10T10:19:02;8.50;;;4.45;;
56893;SDS011;43392;50.078;13.704;2023-05-10T10:21:28;7.90;;;4.07;;
56893;SDS011;43392;50.078;13.704;2023-05-10T10:23:56;12.00;;;5.05;;
56893;SDS011;43392;50.078;13.704;2023-05-10T10:26:22;8.38;;;4.82;;
56893;SDS011;43392;50.078;13.704;2023-05-10T10:28:51;7.43;;;4.40;;
56893;SDS011;43392;50.078;13.704;2023-05-10T10:31:28;8.00;;;4.22;;
56893;SDS011;43392;50.078;13.704;2023-05-10T10:34:05;9.00;;;4.07;;
56893;SDS011;43392;50.078;13.704;2023-05-10T10:36:33;9.40;;;4.30;;
56893;SDS011;43392;50.078;13.704;2023-05-10T10:39:08;8.15;;;4.90;;
56893;SDS011;43392;50.078;13.704;2023-05-10T10:41:36;7.97;;;4.47;;
56893;SDS011;43392;50.078;13.704;2023-05-10T10:44:25;8.13;;;3.90;;
56893;SDS011;43392;50.078;13.704;2023-05-10T10:47:00;11.20;;;4.07;;
56893;SDS011;43392;50.078;13.704;2023-05-10T10:49:32;8.63;;;3.88;;
56893;SDS011;43392;50.078;13.704;2023-05-10T10:52:15;5.72;;;3.58;;
56893;SDS011;43392;50.078;13.704;2023-05-10T10:54:50;5.43;;;3.50;;
56893;SDS011;43392;50.078;13.704;2023-05-10T10:57:18;7.15;;;3.85;;
56893;SDS011;43392;50.078;13.704;2023-05-10T10:59:46;6.30;;;3.60;;
56893;SDS011;43392;50.078;13.704;2023-05-10T11:05:33;7.18;;;3.72;;
56893;SDS011;43392;50.078;13.704;2023-05-10T11:08:08;6.85;;;3.70;;
56893;SDS011;43392;50.078;13.704;2023-05-10T11:10:39;7.60;;;4.50;;
56893;SDS011;43392;50.078;13.704;2023-05-10T11:13:06;7.88;;;3.55;;
56893;SDS011;43392;50.078;13.704;2023-05-10T11:15:35;7.82;;;4.00;;
56893;SDS011;43392;50.078;13.704;2023-05-10T11:18:19;7.22;;;3.97;;
56893;SDS011;43392;50.078;13.704;2023-05-10T11:20:51;8.13;;;3.83;;
56893;SDS011;43392;50.078;13.704;2023-05-10T11:23:18;8.02;;;3.80;;
56893;SDS011;43392;50.078;13.704;2023-05-10T11:25:46;10.65;;;3.72;;
56893;SDS011;43392;50.078;13.704;2023-05-10T11:28:16;7.35;;;3.95;;
56893;SDS011;43392;50.078;13.704;2023-05-10T11:30:43;6.43;;;3.58;;
56893;SDS011;43392;50.078;13.704;2023-05-10T11:33:14;6.43;;;3.75;;
56893;SDS011;43392;50.078;13.704;2023-05-10T11:35:42;10.07;;;3.85;;
56893;SDS011;43392;50.078;13.704;2023-05-10T11:38:11;10.77;;;4.50;;
56893;SDS011;43392;50.078;13.704;2023-05-10T11:40:39;7.20;;;3.55;;
56893;SDS011;43392;50.078;13.704;2023-05-10T11:43:06;6.10;;;3.55;;
56893;SDS011;43392;50.078;13.704;2023-05-10T11:45:35;8.27;;;4.57;;
56893;SDS011;43392;50.078;13.704;2023-05-10T11:48:02;13.30;;;6.22;;
56893;SDS011;43392;50.078;13.704;2023-05-10T11:50:29;12.07;;;5.60;;
56893;SDS011;43392;50.078;13.704;2023-05-10T11:52:56;9.45;;;4.22;;
56893;SDS011;43392;50.078;13.704;2023-05-10T11:55:25;16.30;;;5.85;;
56893;SDS011;43392;50.078;13.704;2023-05-10T11:57:51;9.20;;;4.22;;
56893;SDS011;43392;50.078;13.704;2023-05-10T12:00:18;11.13;;;5.13;;
56893;SDS011;43392;50.078;13.704;2023-05-10T12:02:46;11.07;;;5.10;;
56893;SDS011;43392;50.078;13.704;2023-05-10T12:05:12;8.32;;;4.38;;
56893;SDS011;43392;50.078;13.704;2023-05-10T12:07:39;11.07;;;4.05;;
56893;SDS011;43392;50.078;13.704;2023-05-10T12:10:06;11.05;;;4.25;;
56893;SDS011;43392;50.078;13.704;2023-05-10T12:12:37;8.35;;;4.15;;
56893;SDS011;43392;50.078;13.704;2023-05-10T12:15:07;6.93;;;3.92;;
56893;SDS011;43392;50.078;13.704;2023-05-10T12:17:37;8.93;;;4.20;;
56893;SDS011;43392;50.078;13.704;2023-05-10T12:20:15;10.68;;;4.00;;
56893;SDS011;43392;50.078;13.704;2023-05-10T12:22:49;7.90;;;4.10;;
56893;SDS011;43392;50.078;13.704;2023-05-10T12:25:17;8.35;;;4.05;;
56893;SDS011;43392;50.078;13.704;2023-05-10T12:27:54;7.45;;;3.85;;
56893;SDS011;43392;50.078;13.704;2023-05-10T12:30:24;8.00;;;4.53;;
56893;SDS011;43392;50.078;13.704;2023-05-10T12:32:52;6.97;;;4.18;;
56893;SDS011;43392;50.078;13.704;2023-05-10T12:35:19;9.48;;;4.30;;
56893;SDS011;43392;50.078;13.704;2023-05-10T12:37:47;11.48;;;4.10;;
56893;SDS011;43392;50.078;13.704;2023-05-10T12:40:14;8.38;;;3.83;;
56893;SDS011;43392;50.078;13.704;2023-05-10T12:42:40;8.88;;;4.45;;
56893;SDS011;43392;50.078;13.704;2023-05-10T12:45:09;7.47;;;4.63;;
56893;SDS011;43392;50.078;13.704;2023-05-10T12:47:37;37.85;;;19.25;;
56893;SDS011;43392;50.078;13.704;2023-05-10T12:50:04;10.27;;;5.53;;
56893;SDS011;43392;50.078;13.704;2023-05-10T12:52:31;9.38;;;5.20;;
56893;SDS011;43392;50.078;13.704;2023-05-10T12:54:58;9.25;;;5.15;;
56893;SDS011;43392;50.078;13.704;2023-05-10T12:57:25;7.00;;;4.95;;
56893;SDS011;43392;50.078;13.704;2023-05-10T12:59:52;10.60;;;5.93;;
56893;SDS011;43392;50.078;13.704;2023-05-10T13:02:20;11.10;;;5.63;;
56893;SDS011;43392;50.078;13.704;2023-05-10T13:04:48;9.27;;;5.65;;
56893;SDS011;43392;50.078;13.704;2023-05-10T13:07:14;11.57;;;6.07;;
56893;SDS011;43392;50.078;13.704;2023-05-10T13:09:41;10.32;;;5.70;;
56893;SDS011;43392;50.078;13.704;2023-05-10T13:12:08;9.18;;;6.30;;
56893;SDS011;43392;50.078;13.704;2023-05-10T13:14:35;8.40;;;5.43;;
56893;SDS011;43392;50.078;13.704;2023-05-10T13:17:01;8.60;;;5.80;;
56893;SDS011;43392;50.078;13.704;2023-05-10T13:19:29;10.48;;;6.60;;
56893;SDS011;43392;50.078;13.704;2023-05-10T13:21:56;8.48;;;5.93;;
56893;SDS011;43392;50.078;13.704;2023-05-10T13:24:23;8.93;;;5.93;;
56893;SDS011;43392;50.078;13.704;2023-05-10T13:26:49;12.43;;;6.82;;
56893;SDS011;43392;50.078;13.704;2023-05-10T13:29:16;10.80;;;5.93;;
56893;SDS011;43392;50.078;13.704;2023-05-10T13:31:43;14.13;;;6.85;;
56893;SDS011;43392;50.078;13.704;2023-05-10T13:34:09;11.07;;;6.85;;
56893;SDS011;43392;50.078;13.704;2023-05-10T13:36:37;11.75;;;7.28;;
56893;SDS011;43392;50.078;13.704;2023-05-10T13:39:04;13.43;;;6.63;;
56893;SDS011;43392;50.078;13.704;2023-05-10T13:41:31;10.13;;;6.55;;
56893;SDS011;43392;50.078;13.704;2023-05-10T13:43:58;9.35;;;6.13;;
56893;SDS011;43392;50.078;13.704;2023-05-10T13:46:24;11.45;;;6.47;;
56893;SDS011;43392;50.078;13.704;2023-05-10T13:48:51;13.73;;;6.47;;
56893;SDS011;43392;50.078;13.704;2023-05-10T13:51:17;10.27;;;6.20;;
56893;SDS011;43392;50.078;13.704;2023-05-10T13:53:45;8.85;;;5.55;;
56893;SDS011;43392;50.078;13.704;2023-05-10T13:56:13;10.88;;;6.28;;
56893;SDS011;43392;50.078;13.704;2023-05-10T13:58:39;9.20;;;5.72;;
56893;SDS011;43392;50.078;13.704;2023-05-10T14:01:06;9.77;;;6.30;;
56893;SDS011;43392;50.078;13.704;2023-05-10T14:03:33;10.50;;;6.07;;
56893;SDS011;43392;50.078;13.704;2023-05-10T14:05:59;9.93;;;5.60;;
56893;SDS011;43392;50.078;13.704;2023-05-10T14:08:26;12.98;;;5.65;;
56893;SDS011;43392;50.078;13.704;2023-05-10T14:10:54;10.40;;;5.95;;
56893;SDS011;43392;50.078;13.704;2023-05-10T14:13:22;13.20;;;6.15;;
56893;SDS011;43392;50.078;13.704;2023-05-10T14:15:49;10.95;;;6.40;;
56893;SDS011;43392;50.078;13.704;2023-05-10T14:18:16;8.48;;;5.60;;
56893;SDS011;43392;50.078;13.704;2023-05-10T14:20:43;9.05;;;5.97;;
56893;SDS011;43392;50.078;13.704;2023-05-10T14:23:09;9.13;;;5.68;;
56893;SDS011;43392;50.078;13.704;2023-05-10T14:25:36;10.90;;;6.80;;
56893;SDS011;43392;50.078;13.704;2023-05-10T14:28:04;11.13;;;7.20;;
56893;SDS011;43392;50.078;13.704;2023-05-10T14:30:31;12.38;;;6.50;;
56893;SDS011;43392;50.078;13.704;2023-05-10T14:32:57;9.05;;;5.30;;
56893;SDS011;43392;50.078;13.704;2023-05-10T14:35:26;10.93;;;6.53;;
56893;SDS011;43392;50.078;13.704;2023-05-10T14:37:52;11.60;;;6.40;;
56893;SDS011;43392;50.078;13.704;2023-05-10T14:40:19;11.80;;;6.18;;